createdAt,value
2019-04-23T00:02:30.029Z,2.20
2019-04-23T00:05:31.806Z,2.30
2019-04-23T00:08:17.504Z,2.37
2019-04-23T00:11:24.063Z,2.50
2019-04-23T00:14:23.915Z,2.50
2019-04-23T00:17:11.482Z,2.70
2019-04-23T00:20:03.818Z,2.10
2019-04-23T00:23:22.511Z,2.10
2019-04-23T00:26:19.795Z,2.17
2019-04-23T00:29:18.586Z,2.20
2019-04-23T00:31:55.313Z,2.50
2019-04-23T00:34:41.406Z,2.50
2019-04-23T00:37:25.681Z,2.10
2019-04-23T00:40:02.660Z,2.13
2019-04-23T00:42:53.563Z,2.40
2019-04-23T00:45:55.119Z,2.40
2019-04-23T00:48:54.269Z,2.50
2019-04-23T00:51:36.862Z,2.03
2019-04-23T00:54:26.191Z,2.30
2019-04-23T01:07:58.106Z,2.73
2019-04-23T01:14:15.803Z,2.10
2019-04-23T01:16:50.813Z,2.50
2019-04-23T01:19:57.729Z,2.20
2019-04-23T01:22:29.374Z,2.20
2019-04-23T01:28:53.938Z,2.20
2019-04-23T01:31:43.013Z,2.43
2019-04-23T01:34:31.970Z,2.43
2019-04-23T01:37:26.852Z,2.37
2019-04-23T01:40:31.957Z,2.57
2019-04-23T01:43:04.286Z,2.60
2019-04-23T01:45:35.714Z,2.47
2019-04-23T01:48:39.211Z,2.53
2019-04-23T01:51:26.485Z,2.60
2019-04-23T01:54:09.482Z,2.23
2019-04-23T01:56:58.114Z,2.70
2019-04-23T01:59:38.619Z,2.90
2019-04-23T02:02:29.831Z,2.60
2019-04-23T02:05:24.448Z,2.93
2019-04-23T02:16:24.649Z,3.10
2019-04-23T02:19:16.739Z,3.27
2019-04-23T02:22:19.354Z,3.60
2019-04-23T02:34:00.608Z,3.30
2019-04-23T02:39:57.564Z,3.07
2019-04-23T02:42:44.961Z,3.47
2019-04-23T02:45:10.391Z,3.00
2019-04-23T02:48:08.969Z,2.87
2019-04-23T02:53:44.860Z,3.00
2019-04-23T02:56:34.674Z,2.67
2019-04-23T02:59:32.772Z,3.13
2019-04-23T03:02:14.497Z,2.63
2019-04-23T03:04:50.816Z,2.67
2019-04-23T03:07:39.011Z,3.13
2019-04-23T03:10:15.997Z,2.57
2019-04-23T03:13:16.054Z,2.77
2019-04-23T03:27:55.974Z,2.60
2019-04-23T03:32:31.834Z,2.67
2019-04-23T03:36:56.459Z,2.63
2019-04-23T03:39:21.049Z,2.80
2019-04-23T03:42:02.675Z,3.00
2019-04-23T03:45:00.241Z,2.90
2019-04-23T03:47:37.471Z,2.57
2019-04-23T03:50:28.277Z,2.87
2019-04-23T03:53:03.469Z,2.83
2019-04-23T03:55:58.606Z,2.87
2019-04-23T03:58:44.874Z,3.10
2019-04-23T04:09:38.555Z,3.30
2019-04-23T04:15:25.101Z,3.17
2019-04-23T04:29:21.456Z,3.27
2019-04-23T04:32:06.489Z,2.90
2019-04-23T04:38:32.402Z,3.40
2019-04-23T04:41:03.395Z,3.40
2019-04-23T04:44:05.524Z,3.70
2019-04-23T04:46:47.773Z,3.17
2019-04-23T04:49:51.717Z,3.97
2019-04-23T04:52:41.217Z,3.70
2019-04-23T04:55:23.494Z,3.53
2019-04-23T05:03:26.648Z,3.67
2019-04-23T05:09:25.298Z,3.80
2019-04-23T05:14:58.743Z,4.20
2019-04-23T05:20:46.335Z,3.90
2019-04-23T05:32:02.509Z,4.27
2019-04-23T05:34:46.733Z,4.30
2019-04-23T05:37:50.444Z,4.10
2019-04-23T05:40:39.671Z,4.40
2019-04-23T05:49:06.012Z,4.53
2019-04-23T05:52:00.434Z,4.60
2019-04-23T06:00:16.305Z,4.93
2019-04-23T06:03:12.130Z,4.80
2019-04-23T06:05:54.322Z,4.47
2019-04-23T06:08:38.588Z,4.40
2019-04-23T06:11:30.831Z,5.20
2019-04-23T06:19:36.794Z,5.17
2019-04-23T06:22:32.603Z,5.20
2019-04-23T06:25:12.608Z,4.70
2019-04-23T06:28:06.620Z,5.60
2019-04-23T06:30:58.797Z,5.00
2019-04-23T06:33:48.461Z,5.33
2019-04-23T06:39:34.484Z,5.43
2019-04-23T06:42:14.450Z,5.13
2019-04-23T06:44:58.257Z,5.20
2019-04-23T06:47:44.878Z,5.60
2019-04-23T06:50:32.966Z,5.03
2019-04-23T06:53:04.257Z,5.53
2019-04-23T06:58:43.352Z,5.43
2019-04-23T07:01:27.085Z,5.50
2019-04-23T07:04:18.076Z,5.33
2019-04-23T07:07:24.084Z,5.20
2019-04-23T07:12:49.374Z,5.30
2019-04-23T07:15:58.522Z,5.20
2019-04-23T07:18:54.552Z,5.40
2019-04-23T07:21:59.268Z,5.90
2019-04-23T07:24:45.848Z,5.67
2019-04-23T07:30:17.159Z,5.43
2019-04-23T07:33:07.338Z,5.43
2019-04-23T07:35:51.830Z,5.10
2019-04-23T07:42:20.974Z,5.20
2019-04-23T07:51:28.708Z,5.93
2019-04-23T07:57:25.118Z,6.03
2019-04-23T08:00:29.449Z,6.27
2019-04-23T08:09:34.145Z,5.87
2019-04-23T08:12:55.488Z,5.97
2019-04-23T08:21:10.448Z,6.30
2019-04-23T08:24:08.789Z,7.03
2019-04-23T08:27:41.592Z,6.87
2019-04-23T08:33:51.520Z,6.37
2019-04-23T08:36:42.605Z,6.90
2019-04-23T08:39:19.403Z,6.70
2019-04-23T08:51:19.435Z,6.50
2019-04-23T08:54:21.869Z,7.33
2019-04-23T08:56:40.900Z,6.83
2019-04-23T08:59:33.175Z,7.20
2019-04-23T09:02:34.104Z,7.13
2019-04-23T09:07:45.621Z,6.90
2019-04-23T09:10:36.059Z,6.70
2019-04-23T09:16:36.246Z,6.90
2019-04-23T09:19:23.285Z,8.00
2019-04-23T09:22:15.913Z,7.67
2019-04-23T09:31:18.888Z,7.80
2019-04-23T09:46:53.301Z,8.33
2019-04-23T09:49:56.737Z,8.03
2019-04-23T09:52:36.503Z,7.93
2019-04-23T09:55:28.633Z,7.43
2019-04-23T09:58:11.619Z,7.67
2019-04-23T10:00:59.070Z,7.70
2019-04-23T10:03:26.890Z,7.67
2019-04-23T10:06:14.504Z,8.03
2019-04-23T10:08:56.469Z,7.97
2019-04-23T10:11:37.442Z,7.53
2019-04-23T10:14:21.908Z,7.70
2019-04-23T10:17:08.460Z,7.90
2019-04-23T10:25:40.412Z,8.20
2019-04-23T10:31:14.634Z,7.40
2019-04-23T10:40:00.352Z,7.73
2019-04-23T10:42:43.971Z,8.30
2019-04-23T10:46:07.944Z,8.30
2019-04-23T10:58:15.814Z,7.77
2019-04-23T11:06:47.436Z,7.43
2019-04-23T11:09:48.664Z,7.37
2019-04-23T11:21:42.713Z,8.13
2019-04-23T11:27:32.951Z,7.47
2019-04-23T11:33:30.036Z,6.93
2019-04-23T11:36:33.290Z,6.67
2019-04-23T11:50:24.262Z,6.78
2019-04-23T11:53:00.251Z,6.45
2019-04-23T11:58:42.603Z,6.85
2019-04-23T12:13:45.624Z,8.10
2019-04-23T12:28:53.606Z,7.15
2019-04-23T12:31:38.024Z,7.40
2019-04-23T12:34:25.078Z,7.30
2019-04-23T12:37:14.339Z,7.22
2019-04-23T12:40:29.106Z,6.83
2019-04-23T12:43:12.724Z,7.40
2019-04-23T12:48:49.367Z,7.83
2019-04-23T12:51:34.624Z,6.67
2019-04-23T12:54:36.362Z,6.62
2019-04-23T12:59:56.912Z,7.00
2019-04-23T13:02:46.744Z,6.53
2019-04-23T13:05:27.108Z,6.70
2019-04-23T13:11:02.786Z,6.78
2019-04-23T13:13:48.417Z,6.33
2019-04-23T13:16:40.924Z,6.42
2019-04-23T13:19:37.373Z,7.10
2019-04-23T13:22:14.263Z,7.37
2019-04-23T13:33:51.901Z,7.20
2019-04-23T13:36:32.985Z,6.50
2019-04-23T13:39:18.727Z,7.08
2019-04-23T13:42:05.225Z,7.10
2019-04-23T13:44:36.139Z,7.42
2019-04-23T13:47:10.589Z,6.58
2019-04-23T13:49:46.617Z,7.30
2019-04-23T13:52:43.305Z,5.97
2019-04-23T13:59:55.978Z,6.42
2019-04-23T14:02:37.390Z,6.95
2019-04-23T14:05:35.599Z,7.03
2019-04-23T14:08:13.024Z,6.83
2019-04-23T14:10:46.550Z,7.08
2019-04-23T14:21:05.958Z,6.37
2019-04-23T14:23:59.177Z,6.87
2019-04-23T14:26:26.000Z,6.55
2019-04-23T14:31:23.384Z,5.80
2019-04-23T14:36:47.818Z,6.42
2019-04-23T14:39:10.079Z,6.40
2019-04-23T14:42:03.547Z,6.72
2019-04-23T14:44:31.317Z,6.58
2019-04-23T14:47:18.381Z,7.55
2019-04-23T14:50:22.890Z,6.37
2019-04-23T14:52:38.652Z,6.90
2019-04-23T14:55:40.228Z,5.90
2019-04-23T14:57:51.574Z,6.30
2019-04-23T15:00:31.393Z,6.55
2019-04-23T15:03:04.510Z,6.00
2019-04-23T15:05:23.705Z,6.20
2019-04-23T15:07:58.021Z,6.22
2019-04-23T15:10:49.516Z,6.22
2019-04-23T15:13:12.611Z,5.87
2019-04-23T15:15:46.316Z,6.10
2019-04-23T15:18:44.773Z,5.37
2019-04-23T15:21:28.337Z,5.80
2019-04-23T15:28:30.417Z,5.20
2019-04-23T15:41:49.567Z,5.45
2019-04-23T15:44:14.798Z,5.10
2019-04-23T15:46:46.975Z,5.50
2019-04-23T15:49:28.872Z,4.67
2019-04-23T15:51:56.580Z,5.33
2019-04-23T15:54:39.386Z,5.62
2019-04-23T15:57:12.135Z,5.55
2019-04-23T15:59:51.974Z,5.17
2019-04-23T16:01:47.662Z,5.72
2019-04-23T16:04:24.132Z,5.50
2019-04-23T16:06:56.047Z,5.65
2019-04-23T16:10:04.356Z,5.22
2019-04-23T16:12:31.748Z,5.50
2019-04-23T16:15:11.731Z,5.10
2019-04-23T16:17:42.285Z,5.12
2019-04-23T16:20:28.807Z,5.75
2019-04-23T16:22:48.671Z,5.25
2019-04-23T16:25:20.388Z,5.80
2019-04-23T16:28:05.748Z,5.28
2019-04-23T16:30:38.171Z,5.42
2019-04-23T16:33:20.377Z,5.20
2019-04-23T16:36:08.889Z,5.60
2019-04-23T16:38:50.662Z,5.20
2019-04-23T16:43:58.589Z,5.10
2019-04-23T16:46:25.267Z,5.22
2019-04-23T16:49:13.131Z,5.17
2019-04-23T16:52:03.572Z,5.53
2019-04-23T16:59:24.470Z,5.20
2019-04-23T17:02:12.103Z,5.60
2019-04-23T17:04:39.259Z,5.40
2019-04-23T17:07:07.117Z,5.57
2019-04-23T17:09:50.868Z,5.33
2019-04-23T17:12:17.604Z,5.50
2019-04-23T17:14:56.584Z,5.20
2019-04-23T17:17:38.021Z,5.47
2019-04-23T17:20:16.186Z,5.50
2019-04-23T17:28:04.836Z,5.00
2019-04-23T17:30:34.163Z,5.10
2019-04-23T17:33:20.316Z,5.60
2019-04-23T17:36:13.237Z,5.00
2019-04-23T17:38:49.561Z,4.90
2019-04-23T17:42:05.412Z,5.20
2019-04-23T17:44:38.291Z,4.87
2019-04-23T17:47:27.242Z,5.40
2019-04-23T17:50:10.771Z,5.13
2019-04-23T17:52:34.937Z,4.90
2019-04-23T17:55:22.353Z,4.80
2019-04-23T17:57:44.270Z,5.13
2019-04-23T18:01:22.234Z,5.13
2019-04-23T18:11:37.687Z,5.23
2019-04-23T18:14:08.365Z,5.77
2019-04-23T18:19:16.867Z,5.40
2019-04-23T18:22:26.899Z,5.03
2019-04-23T18:25:10.702Z,4.97
2019-04-23T18:27:47.074Z,5.43
2019-04-23T18:30:42.864Z,5.53
2019-04-23T18:33:57.630Z,6.20
2019-04-23T18:35:49.516Z,7.77
2019-04-23T18:38:34.541Z,6.07
2019-04-23T18:43:43.053Z,6.57
2019-04-23T18:46:22.888Z,5.73
2019-04-23T18:48:50.461Z,5.73
2019-04-23T18:51:21.224Z,5.93
2019-04-23T18:53:52.726Z,5.70
2019-04-23T18:56:43.463Z,6.27
2019-04-23T19:02:08.032Z,5.63
2019-04-23T19:05:07.217Z,5.80
2019-04-23T19:08:08.768Z,5.63
2019-04-23T19:11:09.115Z,6.00
2019-04-23T19:13:24.837Z,5.50
2019-04-23T19:15:59.774Z,5.97
2019-04-23T19:18:35.287Z,6.50
2019-04-23T19:21:15.667Z,6.13
2019-04-23T19:23:47.558Z,6.13
2019-04-23T19:26:23.054Z,6.03
2019-04-23T19:29:00.509Z,6.23
2019-04-23T19:34:22.471Z,6.20
2019-04-23T19:39:24.775Z,6.97
2019-04-23T19:44:24.983Z,6.27
2019-04-23T19:47:03.285Z,6.50
2019-04-23T19:49:32.647Z,5.80
2019-04-23T19:54:50.882Z,6.67
2019-04-23T19:57:12.642Z,6.03
2019-04-23T20:02:27.119Z,6.80
2019-04-23T20:04:55.746Z,6.70
2019-04-23T20:09:56.400Z,6.47
2019-04-23T20:12:40.696Z,6.40
2019-04-23T20:15:08.389Z,6.53
2019-04-23T20:17:51.218Z,6.90
2019-04-23T20:20:49.514Z,6.60
2019-04-23T20:23:11.936Z,6.43
2019-04-23T20:26:29.256Z,6.10
2019-04-23T20:32:57.919Z,6.43
2019-04-23T20:40:23.555Z,7.13
2019-04-23T20:45:39.600Z,6.37
2019-04-23T20:48:12.759Z,6.57
2019-04-23T20:50:58.819Z,7.47
2019-04-23T20:53:46.918Z,7.10
2019-04-23T20:56:18.144Z,6.80
2019-04-23T21:02:03.264Z,6.60
2019-04-23T21:04:18.684Z,6.47
2019-04-23T21:12:06.679Z,6.57
2019-04-23T21:17:04.173Z,6.70
2019-04-23T21:19:59.776Z,7.17
2019-04-23T21:22:17.378Z,6.63
2019-04-23T21:25:01.830Z,6.77
2019-04-23T21:27:44.982Z,6.67
2019-04-23T21:30:53.585Z,7.10
2019-04-23T21:33:11.831Z,6.73
2019-04-23T21:36:40.143Z,7.10
2019-04-23T21:42:14.698Z,7.03
2019-04-23T21:44:45.681Z,7.40
2019-04-23T21:47:19.297Z,7.00
2019-04-23T21:50:19.283Z,6.73
2019-04-23T21:52:39.756Z,6.80
2019-04-23T21:55:14.841Z,7.03
2019-04-23T21:58:07.080Z,7.33
2019-04-23T22:00:24.174Z,7.27
2019-04-23T22:03:11.796Z,6.63
2019-04-23T22:08:20.568Z,7.10
2019-04-23T22:11:10.771Z,6.90
2019-04-23T22:13:41.574Z,6.70
2019-04-23T22:16:16.276Z,6.67
2019-04-23T22:19:01.840Z,6.50
2019-04-23T22:24:12.315Z,6.97
2019-04-23T22:29:26.134Z,7.20
2019-04-23T22:31:50.250Z,6.53
2019-04-23T22:37:11.479Z,6.13
2019-04-23T22:39:23.868Z,6.87
2019-04-23T22:44:39.206Z,6.40
2019-04-23T22:49:50.180Z,6.87
2019-04-23T22:52:21.627Z,6.40
2019-04-23T22:55:02.252Z,6.40
2019-04-23T22:57:57.126Z,6.37
2019-04-23T23:00:14.608Z,6.07
2019-04-23T23:05:53.700Z,5.77
2019-04-23T23:08:30.739Z,6.60
2019-04-23T23:13:48.110Z,6.30
2019-04-23T23:15:53.374Z,6.83
2019-04-23T23:21:05.537Z,6.77
2019-04-23T23:23:39.365Z,6.43
2019-04-23T23:28:55.859Z,5.87
2019-04-23T23:31:30.181Z,6.57
2019-04-23T23:34:07.477Z,6.87
2019-04-23T23:41:56.989Z,6.97
2019-04-23T23:44:43.951Z,6.30
2019-04-23T23:47:25.063Z,6.73
2019-04-23T23:49:56.899Z,6.40
2019-04-23T23:52:33.194Z,6.67
2019-04-23T23:58:01.748Z,6.43
